createdAt,value
2018-01-16T00:00:11.445Z,9.77
2018-01-16T00:02:38.969Z,8.20
2018-01-16T00:05:07.345Z,11.33
2018-01-16T00:07:40.506Z,7.63
2018-01-16T00:10:08.116Z,7.43
2018-01-16T00:12:35.640Z,8.87
2018-01-16T00:15:03.182Z,11.10
2018-01-16T00:17:35.168Z,8.17
2018-01-16T00:20:03.572Z,8.47
2018-01-16T00:22:41.914Z,5.77
2018-01-16T00:25:10.344Z,10.67
2018-01-16T00:27:46.284Z,7.37
2018-01-16T00:30:14.620Z,7.77
2018-01-16T00:32:42.163Z,7.50
2018-01-16T00:35:09.764Z,8.37
2018-01-16T00:37:40.843Z,7.93
2018-01-16T00:40:09.145Z,8.93
2018-01-16T00:42:36.759Z,7.83
2018-01-16T00:45:04.311Z,9.17
2018-01-16T00:47:35.093Z,6.67
2018-01-16T00:50:02.684Z,8.03
2018-01-16T00:52:30.220Z,4.07
2018-01-16T00:54:57.768Z,5.93
2018-01-16T00:57:25.377Z,7.30
2018-01-16T00:59:52.922Z,6.77
2018-01-16T01:02:20.452Z,4.63
2018-01-16T01:04:48.032Z,7.63
2018-01-16T01:07:15.568Z,6.63
2018-01-16T01:09:45.760Z,4.77
2018-01-16T01:12:13.320Z,4.67
2018-01-16T01:14:40.859Z,5.83
2018-01-16T01:17:08.413Z,8.10
2018-01-16T01:19:42.219Z,7.27
2018-01-16T01:22:10.980Z,3.80
2018-01-16T01:24:38.515Z,3.90
2018-01-16T01:27:06.084Z,3.70
2018-01-16T01:29:35.435Z,6.30
2018-01-16T01:32:02.983Z,2.97
2018-01-16T01:34:30.551Z,5.63
2018-01-16T01:36:58.087Z,2.80
2018-01-16T01:39:26.591Z,4.20
2018-01-16T01:41:54.782Z,3.53
2018-01-16T01:44:22.384Z,2.37
2018-01-16T01:46:49.963Z,3.93
2018-01-16T01:49:19.512Z,2.67
2018-01-16T01:51:47.090Z,3.53
2018-01-16T01:54:14.690Z,4.37
2018-01-16T01:56:43.006Z,4.27
2018-01-16T01:59:21.002Z,3.20
2018-01-16T02:01:48.548Z,4.80
2018-01-16T02:04:16.912Z,3.73
2018-01-16T02:06:46.057Z,6.23
2018-01-16T02:09:20.081Z,6.33
2018-01-16T02:11:47.649Z,4.83
2018-01-16T02:14:15.173Z,5.67
2018-01-16T02:16:42.723Z,5.50
2018-01-16T02:19:17.751Z,7.27
2018-01-16T02:21:46.053Z,4.67
2018-01-16T02:24:13.590Z,6.23
2018-01-16T02:26:41.170Z,9.57
2018-01-16T02:29:10.212Z,11.70
2018-01-16T02:31:37.746Z,8.30
2018-01-16T02:34:05.316Z,7.87
2018-01-16T02:36:32.860Z,10.17
2018-01-16T02:39:00.436Z,8.63
2018-01-16T02:41:27.985Z,14.40
2018-01-16T02:43:55.537Z,10.53
2018-01-16T02:46:23.119Z,12.97
2018-01-16T02:48:52.609Z,11.23
2018-01-16T02:51:20.157Z,13.47
2018-01-16T02:53:48.475Z,11.33
2018-01-16T02:56:16.603Z,12.17
2018-01-16T02:58:46.765Z,12.00
2018-01-16T03:01:14.403Z,15.27
2018-01-16T03:03:42.700Z,13.83
2018-01-16T03:06:10.246Z,13.73
2018-01-16T03:08:38.632Z,14.53
2018-01-16T03:11:06.177Z,14.17
2018-01-16T03:13:34.488Z,15.27
2018-01-16T03:16:02.768Z,13.77
2018-01-16T03:18:32.258Z,12.23
2018-01-16T03:20:59.786Z,12.17
2018-01-16T03:23:27.382Z,18.40
2018-01-16T03:25:54.968Z,16.00
2018-01-16T03:28:23.540Z,16.17
2018-01-16T03:30:51.105Z,15.47
2018-01-16T03:33:19.447Z,16.33
2018-01-16T03:35:47.618Z,23.30
2018-01-16T03:38:15.951Z,19.13
2018-01-16T03:40:43.511Z,17.63
2018-01-16T03:43:11.087Z,13.00
2018-01-16T03:45:38.629Z,16.80
2018-01-16T03:48:07.099Z,13.47
2018-01-16T03:50:34.658Z,10.87
2018-01-16T03:53:02.200Z,15.17
2018-01-16T03:55:29.748Z,16.23
2018-01-16T03:57:57.326Z,12.97
2018-01-16T04:00:25.622Z,18.00
2018-01-16T04:02:53.178Z,14.13
2018-01-16T04:05:20.760Z,17.47
2018-01-16T04:07:48.312Z,12.63
2018-01-16T04:10:15.862Z,15.57
2018-01-16T04:12:43.436Z,19.87
2018-01-16T04:15:10.967Z,16.10
2018-01-16T04:17:44.667Z,17.03
2018-01-16T04:20:12.205Z,15.53
2018-01-16T04:22:39.785Z,15.90
2018-01-16T04:25:07.381Z,14.80
2018-01-16T04:27:35.887Z,16.40
2018-01-16T04:30:03.436Z,15.37
2018-01-16T04:32:31.013Z,16.77
2018-01-16T04:34:58.549Z,14.53
2018-01-16T04:37:36.559Z,14.67
2018-01-16T04:40:04.187Z,23.77
2018-01-16T04:42:31.734Z,15.80
2018-01-16T04:44:59.272Z,12.60
2018-01-16T04:47:27.849Z,13.17
2018-01-16T04:49:55.390Z,13.83
2018-01-16T04:52:22.936Z,14.03
2018-01-16T04:54:50.503Z,20.33
2018-01-16T04:57:22.286Z,15.53
2018-01-16T04:59:49.889Z,14.07
2018-01-16T05:02:17.427Z,15.60
2018-01-16T05:04:44.965Z,15.03
2018-01-16T05:07:12.549Z,20.23
2018-01-16T05:09:40.103Z,14.97
2018-01-16T05:12:07.631Z,13.93
2018-01-16T05:14:35.731Z,15.93
2018-01-16T05:17:03.275Z,20.40
2018-01-16T05:19:30.821Z,19.47
2018-01-16T05:21:58.400Z,18.73
2018-01-16T05:24:26.533Z,19.40
2018-01-16T05:26:54.082Z,13.53
2018-01-16T05:29:23.009Z,13.50
2018-01-16T05:31:50.610Z,14.03
2018-01-16T05:34:18.150Z,13.90
2018-01-16T05:36:47.051Z,13.70
2018-01-16T05:39:25.264Z,17.60
2018-01-16T05:41:54.031Z,14.70
2018-01-16T05:44:22.831Z,16.67
2018-01-16T05:46:51.119Z,13.47
2018-01-16T05:49:26.895Z,13.60
2018-01-16T05:51:54.441Z,18.90
2018-01-16T05:54:22.795Z,12.00
2018-01-16T05:56:51.167Z,14.97
2018-01-16T05:59:20.707Z,10.97
2018-01-16T06:01:48.255Z,13.43
2018-01-16T06:04:16.662Z,14.53
2018-01-16T06:06:44.507Z,9.83
2018-01-16T06:09:12.998Z,11.70
2018-01-16T06:11:40.600Z,11.27
2018-01-16T06:14:08.142Z,9.47
2018-01-16T06:16:36.449Z,9.10
2018-01-16T06:19:09.821Z,9.50
2018-01-16T06:21:37.370Z,6.00
2018-01-16T06:24:04.947Z,7.90
2018-01-16T06:26:33.293Z,9.83
2018-01-16T06:29:02.389Z,7.83
2018-01-16T06:31:29.908Z,7.27
2018-01-16T06:33:57.510Z,10.07
2018-01-16T06:36:25.085Z,6.90
2018-01-16T06:39:01.791Z,7.77
2018-01-16T06:41:29.358Z,10.50
2018-01-16T06:43:58.200Z,9.93
2018-01-16T06:46:25.744Z,8.73
2018-01-16T06:48:54.320Z,11.70
2018-01-16T06:51:21.880Z,12.87
2018-01-16T06:53:49.450Z,11.87
2018-01-16T06:56:17.036Z,12.80
2018-01-16T06:58:55.128Z,13.27
2018-01-16T07:01:22.702Z,13.37
2018-01-16T07:03:51.139Z,11.17
2018-01-16T07:06:18.677Z,8.57
2018-01-16T07:08:51.776Z,10.40
2018-01-16T07:11:19.311Z,16.33
2018-01-16T07:13:46.865Z,14.67
2018-01-16T07:16:15.205Z,10.73
2018-01-16T07:18:42.741Z,10.50
2018-01-16T07:21:10.279Z,13.57
2018-01-16T07:23:37.837Z,11.80
2018-01-16T07:26:06.125Z,12.77
2018-01-16T07:28:34.650Z,11.03
2018-01-16T07:31:02.812Z,10.83
2018-01-16T07:33:30.386Z,12.77
2018-01-16T07:35:58.010Z,10.70
2018-01-16T07:38:30.756Z,14.00
2018-01-16T07:40:58.330Z,10.70
2018-01-16T07:43:26.648Z,10.87
2018-01-16T07:45:54.974Z,14.13
2018-01-16T07:48:22.554Z,13.30
2018-01-16T07:53:18.472Z,13.87
2018-01-16T07:55:46.616Z,12.30
2018-01-16T07:58:16.144Z,12.37
2018-01-16T08:00:43.689Z,14.70
2018-01-16T08:03:11.739Z,13.83
2018-01-16T08:05:39.307Z,12.70
2018-01-16T08:08:08.162Z,8.80
2018-01-16T08:10:36.579Z,4.57
2018-01-16T08:13:04.199Z,2.53
2018-01-16T08:15:31.723Z,1.90
2018-01-16T08:17:59.233Z,3.10
2018-01-16T08:20:26.797Z,3.27
2018-01-16T08:22:54.324Z,2.13
2018-01-16T08:25:21.858Z,1.83
2018-01-16T08:27:53.872Z,4.83
2018-01-16T08:30:22.274Z,2.00
2018-01-16T08:32:50.564Z,2.30
2018-01-16T08:35:18.163Z,1.80
2018-01-16T08:37:51.882Z,1.73
2018-01-16T08:40:20.160Z,1.90
2018-01-16T08:42:47.707Z,2.33
2018-01-16T08:45:15.227Z,4.70
2018-01-16T08:47:44.739Z,2.43
2018-01-16T08:50:12.287Z,7.57
2018-01-16T08:52:39.861Z,5.43
2018-01-16T08:55:07.385Z,10.97
2018-01-16T08:57:36.905Z,7.37
2018-01-16T09:00:05.219Z,7.77
2018-01-16T09:02:32.758Z,6.27
2018-01-16T09:05:01.062Z,7.73
2018-01-16T09:07:28.652Z,3.80
2018-01-16T09:09:56.222Z,6.23
2018-01-16T09:12:23.754Z,5.43
2018-01-16T09:14:51.330Z,20.60
2018-01-16T09:17:18.854Z,8.57
2018-01-16T09:19:46.390Z,4.80
2018-01-16T09:22:14.751Z,2.77
2018-01-16T09:24:42.353Z,5.23
2018-01-16T09:27:09.907Z,4.67
2018-01-16T09:29:47.997Z,9.17
2018-01-16T09:32:16.335Z,5.20
2018-01-16T09:34:43.887Z,5.07
2018-01-16T09:37:11.990Z,9.63
2018-01-16T09:39:39.526Z,7.13
2018-01-16T09:42:07.057Z,7.20
2018-01-16T09:44:36.176Z,8.63
2018-01-16T09:47:03.740Z,3.97
2018-01-16T09:49:32.040Z,4.47
2018-01-16T09:51:59.638Z,4.40
2018-01-16T09:54:27.967Z,4.17
2018-01-16T09:56:56.150Z,3.17
2018-01-16T09:59:27.880Z,5.93
2018-01-16T10:01:55.433Z,5.70
2018-01-16T10:04:23.765Z,7.53
2018-01-16T10:06:51.306Z,7.07
2018-01-16T10:09:20.835Z,4.27
2018-01-16T10:11:48.413Z,4.97
2018-01-16T10:14:15.961Z,2.93
2018-01-16T10:16:44.418Z,3.20
2018-01-16T10:19:18.804Z,4.80
2018-01-16T10:21:48.117Z,5.23
2018-01-16T10:24:15.645Z,4.47
2018-01-16T10:26:43.260Z,7.13
2018-01-16T10:29:14.519Z,2.97
2018-01-16T10:31:42.103Z,4.43
2018-01-16T10:34:09.654Z,5.60
2018-01-16T10:36:37.174Z,4.07
2018-01-16T10:39:11.546Z,3.57
2018-01-16T10:41:39.087Z,5.57
2018-01-16T10:44:06.617Z,2.67
2018-01-16T10:46:34.240Z,6.83
2018-01-16T10:49:02.357Z,5.73
2018-01-16T10:51:29.908Z,6.23
2018-01-16T10:53:57.467Z,5.00
2018-01-16T10:56:24.991Z,3.83
2018-01-16T10:58:55.725Z,6.70
2018-01-16T11:01:23.333Z,5.90
2018-01-16T11:03:50.884Z,3.17
2018-01-16T11:06:19.189Z,3.97
2018-01-16T11:08:52.919Z,2.80
2018-01-16T11:11:20.477Z,4.40
2018-01-16T11:13:48.032Z,6.60
2018-01-16T11:16:15.604Z,3.93
2018-01-16T11:18:43.790Z,4.10
2018-01-16T11:21:11.327Z,6.53
2018-01-16T11:23:38.946Z,4.63
2018-01-16T11:26:07.271Z,10.67
2018-01-16T11:28:34.810Z,5.17
2018-01-16T11:31:02.370Z,5.93
2018-01-16T11:33:30.518Z,7.23
2018-01-16T11:35:58.051Z,6.70
2018-01-16T11:38:26.627Z,4.83
2018-01-16T11:40:54.167Z,3.73
2018-01-16T11:43:22.341Z,3.43
2018-01-16T11:45:49.917Z,5.40
2018-01-16T11:48:17.480Z,7.23
2018-01-16T11:50:46.303Z,9.87
2018-01-16T11:53:13.846Z,8.20
2018-01-16T11:55:41.393Z,5.40
2018-01-16T11:58:10.889Z,6.23
2018-01-16T12:00:38.428Z,11.10
2018-01-16T12:03:06.008Z,8.87
2018-01-16T12:05:33.560Z,6.63
2018-01-16T12:08:13.913Z,8.40
2018-01-16T12:10:44.444Z,7.37
2018-01-16T12:13:12.774Z,16.20
2018-01-16T12:15:40.853Z,14.27
2018-01-16T12:18:08.393Z,16.37
2018-01-16T12:20:35.937Z,10.03
2018-01-16T12:23:03.473Z,8.13
2018-01-16T12:25:31.793Z,8.90
2018-01-16T12:28:00.189Z,9.30
2018-01-16T12:30:28.489Z,11.37
2018-01-16T12:32:56.620Z,7.93
2018-01-16T12:35:24.173Z,5.83
2018-01-16T12:37:52.207Z,8.27
2018-01-16T12:40:19.788Z,6.30
2018-01-16T12:42:48.176Z,4.73
2018-01-16T12:45:17.336Z,3.93
2018-01-16T12:47:57.454Z,4.23
2018-01-16T12:50:24.988Z,5.97
2018-01-16T12:52:53.415Z,2.80
2018-01-16T12:55:21.006Z,7.33
2018-01-16T12:57:49.462Z,9.40
2018-01-16T13:00:17.019Z,7.00
2018-01-16T13:02:44.561Z,3.40
2018-01-16T13:05:12.105Z,6.30
2018-01-16T13:07:42.349Z,6.83
2018-01-16T13:10:12.183Z,5.53
2018-01-16T13:12:39.731Z,9.53
2018-01-16T13:15:07.263Z,6.53
2018-01-16T13:17:46.681Z,8.93
2018-01-16T13:20:14.225Z,14.10
2018-01-16T13:22:41.754Z,8.83
2018-01-16T13:25:09.312Z,13.20
2018-01-16T13:27:42.810Z,9.47
2018-01-16T13:30:10.396Z,17.17
2018-01-16T13:32:38.027Z,8.07
2018-01-16T13:35:05.572Z,10.77
2018-01-16T13:37:33.092Z,13.13
2018-01-16T13:40:00.693Z,10.23
2018-01-16T13:42:29.027Z,11.27
2018-01-16T13:44:56.601Z,15.67
2018-01-16T13:47:25.077Z,11.90
2018-01-16T13:49:52.625Z,12.33
2018-01-16T13:52:21.085Z,9.87
2018-01-16T13:54:48.643Z,16.03
2018-01-16T13:57:16.171Z,8.70
2018-01-16T13:59:43.741Z,16.40
2018-01-16T14:02:12.044Z,12.53
2018-01-16T14:04:39.582Z,12.60
2018-01-16T14:07:07.900Z,13.50
2018-01-16T14:09:37.424Z,14.10
2018-01-16T14:12:04.966Z,12.53
2018-01-16T14:14:32.534Z,14.37
2018-01-16T14:17:00.098Z,15.83
2018-01-16T14:19:28.614Z,12.67
2018-01-16T14:21:56.154Z,10.63
2018-01-16T14:24:23.695Z,8.87
2018-01-16T14:26:51.230Z,12.93
2018-01-16T14:29:19.785Z,18.23
2018-01-16T14:31:47.319Z,15.13
2018-01-16T14:34:14.899Z,14.20
2018-01-16T14:36:42.548Z,11.77
2018-01-16T14:39:11.082Z,6.27
2018-01-16T14:41:39.391Z,12.43
2018-01-16T14:44:06.945Z,13.07
2018-01-16T14:46:34.550Z,16.50
2018-01-16T14:49:26.613Z,7.53
2018-01-16T14:51:54.942Z,10.47
2018-01-16T14:54:22.495Z,7.90
2018-01-16T14:56:50.072Z,6.93
2018-01-16T14:59:18.626Z,11.27
2018-01-16T15:01:46.736Z,7.37
2018-01-16T15:04:20.140Z,8.53
2018-01-16T15:06:47.690Z,7.57
2018-01-16T15:09:17.159Z,12.30
2018-01-16T15:11:44.733Z,18.73
2018-01-16T15:14:12.281Z,12.00
2018-01-16T15:16:39.808Z,9.97
2018-01-16T15:19:08.394Z,11.13
2018-01-16T15:21:35.941Z,15.97
2018-01-16T15:24:03.481Z,10.93
2018-01-16T15:26:31.055Z,10.87
2018-01-16T15:29:00.597Z,10.60
2018-01-16T15:31:28.161Z,8.67
2018-01-16T15:33:55.741Z,12.07
2018-01-16T15:36:24.049Z,8.17
2018-01-16T15:38:51.635Z,14.20
2018-01-16T15:41:19.492Z,12.67
2018-01-16T15:43:47.076Z,9.67
2018-01-16T15:46:14.620Z,11.93
2018-01-16T15:48:42.196Z,13.10
2018-01-16T15:51:09.730Z,12.13
2018-01-16T15:53:37.269Z,14.17
2018-01-16T15:56:05.619Z,9.37
2018-01-16T15:58:34.169Z,10.70
2018-01-16T16:01:01.703Z,10.13
2018-01-16T16:03:29.298Z,10.80
2018-01-16T16:05:56.898Z,11.10
2018-01-16T16:08:26.455Z,6.97
2018-01-16T16:10:54.022Z,6.30
2018-01-16T16:13:22.469Z,8.77
2018-01-16T16:15:50.875Z,12.50
2018-01-16T16:18:19.376Z,9.47
2018-01-16T16:20:47.567Z,12.47
2018-01-16T16:23:15.122Z,13.33
2018-01-16T16:25:42.674Z,5.53
2018-01-16T16:28:10.244Z,7.17
2018-01-16T16:30:37.796Z,11.50
2018-01-16T16:33:05.364Z,8.03
2018-01-16T16:35:32.936Z,9.43
2018-01-16T16:38:02.508Z,11.03
2018-01-16T16:40:31.015Z,5.23
2018-01-16T16:42:58.736Z,3.47
2018-01-16T16:45:28.173Z,4.93
2018-01-16T16:48:00.357Z,6.17
2018-01-16T16:50:27.929Z,4.27
2018-01-16T16:52:56.211Z,8.13
2018-01-16T16:55:23.791Z,7.17
2018-01-16T16:57:51.329Z,17.70
2018-01-16T17:00:19.348Z,11.07
2018-01-16T17:02:48.344Z,9.07
2018-01-16T17:05:16.644Z,12.97
2018-01-16T17:07:44.308Z,9.73
2018-01-16T17:10:11.898Z,6.30
2018-01-16T17:12:39.486Z,9.43
2018-01-16T17:15:07.830Z,10.77
2018-01-16T17:17:39.874Z,10.37
2018-01-16T17:20:07.421Z,7.13
2018-01-16T17:22:34.981Z,10.30
2018-01-16T17:25:02.581Z,7.27
2018-01-16T17:27:30.117Z,6.90
2018-01-16T17:29:57.647Z,9.97
2018-01-16T17:32:26.035Z,9.53
2018-01-16T17:34:54.347Z,10.00
2018-01-16T17:37:21.917Z,11.87
2018-01-16T17:39:49.473Z,10.27
2018-01-16T17:42:17.042Z,13.60
2018-01-16T17:44:44.641Z,8.07
2018-01-16T17:47:12.210Z,9.17
2018-01-16T17:49:41.772Z,12.07
2018-01-16T17:52:09.330Z,8.40
2018-01-16T17:54:36.866Z,10.10
2018-01-16T17:57:05.780Z,5.90
2018-01-16T17:59:34.300Z,8.67
2018-01-16T18:02:01.843Z,13.80
2018-01-16T18:04:29.511Z,15.43
2018-01-16T18:06:57.137Z,14.50
2018-01-16T18:09:29.349Z,21.47
2018-01-16T18:11:57.711Z,12.83
2018-01-16T18:14:25.251Z,11.47
2018-01-16T18:16:52.831Z,10.60
2018-01-16T18:19:28.932Z,11.30
2018-01-16T18:21:56.477Z,10.70
2018-01-16T18:24:24.032Z,12.80
2018-01-16T18:26:53.214Z,14.47
2018-01-16T18:29:25.368Z,11.27
2018-01-16T18:31:52.926Z,14.60
2018-01-16T18:34:21.354Z,11.63
2018-01-16T18:36:48.918Z,11.10
2018-01-16T18:39:17.646Z,9.20
2018-01-16T18:41:45.998Z,9.93
2018-01-16T18:44:13.542Z,10.13
2018-01-16T18:46:41.116Z,10.27
2018-01-16T18:49:08.661Z,10.60
2018-01-16T18:51:36.207Z,12.23
2018-01-16T18:54:03.797Z,10.83
2018-01-16T18:56:31.385Z,10.63
2018-01-16T18:59:02.569Z,9.67
2018-01-16T19:01:30.147Z,10.80
2018-01-16T19:03:57.737Z,10.30
2018-01-16T19:06:25.274Z,9.70
2018-01-16T19:08:56.829Z,11.60
2018-01-16T19:11:24.396Z,10.40
2018-01-16T19:13:52.660Z,13.00
2018-01-16T19:16:20.227Z,12.57
2018-01-16T19:18:48.473Z,14.40
2018-01-16T19:21:16.758Z,12.10
2018-01-16T19:23:45.078Z,12.07
2018-01-16T19:26:12.617Z,10.43
2018-01-16T19:28:40.180Z,18.57
2018-01-16T19:31:07.768Z,9.90
2018-01-16T19:33:35.367Z,13.37
2018-01-16T19:36:03.684Z,13.63
2018-01-16T19:38:32.997Z,15.03
2018-01-16T19:41:01.292Z,16.20
2018-01-16T19:43:28.873Z,14.33
2018-01-16T19:45:57.244Z,12.70
2018-01-16T19:48:27.541Z,19.43
2018-01-16T19:50:55.544Z,17.13
2018-01-16T19:53:23.120Z,15.20
2018-01-16T19:55:50.670Z,21.23
2018-01-16T19:58:18.242Z,23.53
2018-01-16T20:00:45.820Z,19.03
2018-01-16T20:03:14.214Z,17.53
2018-01-16T20:05:41.799Z,14.77
2018-01-16T20:08:09.378Z,14.93
2018-01-16T20:10:36.922Z,13.53
2018-01-16T20:13:04.505Z,15.17
2018-01-16T20:15:32.121Z,12.50
2018-01-16T20:18:00.435Z,11.93
2018-01-16T20:20:28.460Z,11.87
2018-01-16T20:22:56.171Z,12.93
2018-01-16T20:25:23.816Z,12.37
2018-01-16T20:27:56.663Z,15.07
2018-01-16T20:30:29.627Z,10.73
2018-01-16T20:32:57.269Z,10.03
2018-01-16T20:35:24.825Z,9.53
2018-01-16T20:38:00.964Z,18.57
2018-01-16T20:40:28.518Z,11.30
2018-01-16T20:42:56.056Z,7.33
2018-01-16T20:45:23.678Z,11.40
2018-01-16T20:47:53.181Z,13.37
2018-01-16T20:50:20.754Z,9.87
2018-01-16T20:52:48.305Z,10.83
2018-01-16T20:55:15.880Z,13.03
2018-01-16T20:57:45.414Z,15.27
2018-01-16T21:00:13.065Z,13.67
2018-01-16T21:02:41.793Z,11.73
2018-01-16T21:05:10.721Z,9.67
2018-01-16T21:07:57.883Z,9.50
2018-01-16T21:10:26.533Z,11.20
2018-01-16T21:12:54.076Z,8.20
2018-01-16T21:15:21.653Z,11.60
2018-01-16T21:17:51.178Z,15.57
2018-01-16T21:20:18.742Z,17.53
2018-01-16T21:22:46.365Z,14.53
2018-01-16T21:25:13.938Z,16.00
2018-01-16T21:27:43.425Z,14.73
2018-01-16T21:30:11.040Z,12.50
2018-01-16T21:32:38.590Z,12.63
2018-01-16T21:35:06.774Z,20.67
2018-01-16T21:37:41.299Z,16.67
2018-01-16T21:40:08.862Z,15.07
2018-01-16T21:42:36.802Z,10.97
2018-01-16T21:45:04.393Z,11.87
2018-01-16T21:47:32.985Z,11.00
2018-01-16T21:50:02.597Z,15.13
2018-01-16T21:52:31.739Z,11.87
2018-01-16T21:55:02.003Z,9.37
2018-01-16T21:57:33.565Z,13.20
2018-01-16T22:00:01.437Z,14.30
2018-01-16T22:02:29.819Z,11.70
2018-01-16T22:04:57.436Z,15.53
2018-01-16T22:07:27.967Z,12.70
2018-01-16T22:09:55.538Z,12.20
2018-01-16T22:12:23.103Z,12.73
2018-01-16T22:14:50.646Z,14.00
2018-01-16T22:17:18.969Z,17.37
2018-01-16T22:19:48.038Z,15.37
2018-01-16T22:22:19.668Z,16.23
2018-01-16T22:24:47.220Z,20.03
2018-01-16T22:27:14.806Z,14.93
2018-01-16T22:29:43.164Z,18.87
2018-01-16T22:32:11.493Z,15.27
2018-01-16T22:34:39.061Z,16.13
2018-01-16T22:37:06.633Z,15.37
2018-01-16T22:39:36.175Z,14.77
2018-01-16T22:42:05.363Z,18.87
2018-01-16T22:44:32.915Z,13.23
2018-01-16T22:47:00.474Z,12.67
2018-01-16T22:49:33.916Z,12.83
2018-01-16T22:52:02.254Z,16.10
2018-01-16T22:54:29.794Z,13.47
2018-01-16T22:56:57.330Z,16.67
2018-01-16T22:59:45.360Z,17.60
2018-01-16T23:02:13.670Z,10.23
2018-01-16T23:04:41.212Z,19.70
2018-01-16T23:07:08.792Z,11.10
2018-01-16T23:09:39.140Z,12.07
2018-01-16T23:12:06.747Z,15.13
2018-01-16T23:14:35.112Z,14.80
2018-01-16T23:17:02.658Z,10.67
2018-01-16T23:19:30.189Z,15.23
2018-01-16T23:21:57.796Z,17.97
2018-01-16T23:24:25.357Z,10.73
2018-01-16T23:26:53.003Z,11.63
2018-01-16T23:29:23.288Z,17.83
2018-01-16T23:31:52.252Z,14.50
2018-01-16T23:34:21.280Z,17.13
2018-01-16T23:36:48.822Z,11.90
2018-01-16T23:39:16.395Z,12.53
2018-01-16T23:41:43.942Z,17.90
2018-01-16T23:44:12.266Z,13.57
2018-01-16T23:46:40.742Z,10.60
2018-01-16T23:49:08.310Z,13.67
2018-01-16T23:51:35.832Z,11.73
2018-01-16T23:54:03.454Z,16.37
2018-01-16T23:56:30.991Z,14.37
2018-01-16T23:58:59.555Z,14.63
